createdAt,value
2018-07-25T00:00:47.844Z,27.20
2018-07-25T00:03:16.297Z,21.90
2018-07-25T00:05:44.430Z,26.70
2018-07-25T00:08:12.936Z,21.00
2018-07-25T00:10:46.764Z,27.20
2018-07-25T00:13:15.234Z,21.10
2018-07-25T00:15:43.470Z,21.00
2018-07-25T00:18:11.978Z,21.77
2018-07-25T00:20:40.445Z,19.43
2018-07-25T00:23:09.111Z,19.63
2018-07-25T00:25:37.513Z,21.37
2018-07-25T00:28:05.995Z,21.60
2018-07-25T00:30:34.569Z,25.03
2018-07-25T00:33:02.925Z,24.87
2018-07-25T00:35:31.417Z,20.90
2018-07-25T00:37:59.950Z,23.90
2018-07-25T00:40:28.601Z,23.80
2018-07-25T00:42:57.354Z,20.53
2018-07-25T00:45:25.484Z,24.13
2018-07-25T00:47:53.713Z,22.90
2018-07-25T00:50:22.367Z,26.40
2018-07-25T00:52:50.872Z,19.87
2018-07-25T00:55:19.643Z,23.13
2018-07-25T00:57:47.896Z,30.37
2018-07-25T01:00:18.438Z,20.20
2018-07-25T01:02:47.797Z,27.03
2018-07-25T01:05:16.411Z,22.37
2018-07-25T01:07:45.122Z,24.53
2018-07-25T01:10:13.414Z,21.70
2018-07-25T01:12:42.034Z,27.80
2018-07-25T01:15:11.188Z,30.93
2018-07-25T01:17:39.813Z,23.97
2018-07-25T01:20:08.355Z,23.83
2018-07-25T01:22:36.537Z,27.60
2018-07-25T01:25:05.458Z,26.03
2018-07-25T01:27:34.056Z,24.93
2018-07-25T01:30:02.697Z,26.40
2018-07-25T01:32:30.820Z,22.50
2018-07-25T01:34:59.410Z,25.83
2018-07-25T01:37:28.052Z,21.13
2018-07-25T01:39:56.525Z,30.57
2018-07-25T01:42:25.064Z,22.97
2018-07-25T01:44:53.664Z,22.43
2018-07-25T01:47:22.103Z,22.17
2018-07-25T01:49:50.567Z,27.53
2018-07-25T01:52:19.135Z,29.03
2018-07-25T01:54:47.571Z,24.90
2018-07-25T01:57:15.720Z,28.43
2018-07-25T01:59:44.239Z,25.70
2018-07-25T02:02:12.953Z,26.17
2018-07-25T02:04:41.751Z,28.13
2018-07-25T02:07:09.915Z,29.53
2018-07-25T02:09:38.450Z,31.30
2018-07-25T02:12:06.576Z,26.03
2018-07-25T02:14:35.104Z,29.07
2018-07-25T02:17:03.771Z,23.63
2018-07-25T02:19:32.381Z,25.37
2018-07-25T02:22:00.799Z,25.90
2018-07-25T02:24:29.433Z,26.03
2018-07-25T02:26:58.017Z,26.87
2018-07-25T02:29:26.235Z,23.13
2018-07-25T02:31:54.748Z,24.20
2018-07-25T02:34:23.417Z,22.73
2018-07-25T02:36:52.609Z,24.97
2018-07-25T02:39:20.782Z,23.23
2018-07-25T02:41:49.378Z,31.43
2018-07-25T02:44:18.002Z,27.27
2018-07-25T02:46:46.542Z,25.33
2018-07-25T02:49:15.150Z,29.40
2018-07-25T02:51:43.766Z,26.77
2018-07-25T02:54:12.249Z,28.80
2018-07-25T02:56:43.317Z,29.67
2018-07-25T02:59:12.204Z,32.10
2018-07-25T03:01:40.332Z,26.87
2018-07-25T03:04:08.911Z,25.10
2018-07-25T03:06:37.089Z,30.23
2018-07-25T03:09:06.773Z,35.27
2018-07-25T03:11:35.188Z,25.40
2018-07-25T03:14:03.831Z,27.93
2018-07-25T03:16:32.332Z,30.83
2018-07-25T03:19:00.763Z,25.80
2018-07-25T03:21:28.976Z,31.50
2018-07-25T03:23:57.402Z,31.93
2018-07-25T03:26:25.899Z,28.47
2018-07-25T03:28:54.466Z,29.97
2018-07-25T03:31:23.100Z,35.03
2018-07-25T03:33:51.573Z,35.60
2018-07-25T03:36:20.017Z,31.43
2018-07-25T03:38:48.567Z,32.20
2018-07-25T03:41:16.991Z,34.27
2018-07-25T03:43:45.490Z,32.63
2018-07-25T03:46:14.084Z,35.30
2018-07-25T03:48:42.554Z,31.70
2018-07-25T03:51:10.903Z,34.20
2018-07-25T03:53:39.088Z,31.97
2018-07-25T03:56:07.268Z,32.73
2018-07-25T03:58:35.731Z,30.23
2018-07-25T04:01:03.990Z,34.93
2018-07-25T04:03:33.546Z,29.83
2018-07-25T04:06:01.828Z,30.27
2018-07-25T04:08:30.277Z,35.93
2018-07-25T04:10:58.825Z,31.27
2018-07-25T04:13:27.314Z,32.00
2018-07-25T04:15:55.500Z,39.47
2018-07-25T04:18:23.999Z,36.73
2018-07-25T04:20:52.499Z,27.03
2018-07-25T04:23:20.948Z,27.97
2018-07-25T04:25:50.296Z,30.00
2018-07-25T04:28:18.822Z,28.70
2018-07-25T04:30:47.340Z,30.00
2018-07-25T04:33:15.794Z,29.50
2018-07-25T04:35:44.288Z,28.43
2018-07-25T04:38:12.778Z,32.50
2018-07-25T04:40:41.280Z,31.80
2018-07-25T04:43:16.201Z,29.80
2018-07-25T04:45:44.715Z,31.17
2018-07-25T04:48:13.175Z,32.90
2018-07-25T04:50:41.672Z,31.47
2018-07-25T04:53:10.143Z,34.53
2018-07-25T04:55:38.606Z,32.23
2018-07-25T04:58:07.087Z,29.80
2018-07-25T05:00:35.650Z,29.00
2018-07-25T05:03:04.151Z,33.70
2018-07-25T05:05:32.712Z,32.30
2018-07-25T05:08:01.184Z,29.13
2018-07-25T05:10:30.474Z,34.80
2018-07-25T05:12:59.499Z,28.57
2018-07-25T05:15:28.485Z,36.33
2018-07-25T05:17:57.412Z,31.70
2018-07-25T05:20:26.929Z,31.17
2018-07-25T05:22:56.207Z,27.90
2018-07-25T05:25:25.277Z,32.53
2018-07-25T05:27:54.917Z,27.27
2018-07-25T05:30:23.972Z,26.63
2018-07-25T05:32:52.434Z,28.67
2018-07-25T05:35:22.024Z,23.93
2018-07-25T05:37:50.502Z,25.10
2018-07-25T05:40:19.881Z,23.70
2018-07-25T05:42:51.437Z,26.67
2018-07-25T05:45:20.387Z,20.97
2018-07-25T05:47:48.988Z,22.40
2018-07-25T05:50:18.807Z,25.17
2018-07-25T05:52:47.507Z,26.83
2018-07-25T05:55:16.280Z,21.90
2018-07-25T05:57:44.792Z,24.40
2018-07-25T06:00:13.668Z,26.67
2018-07-25T06:02:43.400Z,25.37
2018-07-25T06:05:12.596Z,22.10
2018-07-25T06:07:41.064Z,19.10
2018-07-25T06:10:10.186Z,25.70
2018-07-25T06:12:43.353Z,25.30
2018-07-25T06:15:19.573Z,24.20
2018-07-25T06:17:48.737Z,19.17
2018-07-25T06:20:21.772Z,19.30
2018-07-25T06:22:50.594Z,29.87
2018-07-25T06:25:20.153Z,21.77
2018-07-25T06:27:49.369Z,18.97
2018-07-25T06:30:18.528Z,20.17
2018-07-25T06:32:47.152Z,17.87
2018-07-25T06:35:16.131Z,17.50
2018-07-25T06:37:45.093Z,18.27
2018-07-25T06:40:14.962Z,18.57
2018-07-25T06:42:43.655Z,15.63
2018-07-25T06:45:15.619Z,16.03
2018-07-25T06:47:44.430Z,20.20
2018-07-25T06:50:13.236Z,15.80
2018-07-25T06:52:42.324Z,15.80
2018-07-25T06:55:10.988Z,17.03
2018-07-25T06:57:40.312Z,18.70
2018-07-25T07:00:10.415Z,16.50
2018-07-25T07:02:39.817Z,16.80
2018-07-25T07:05:09.297Z,18.40
2018-07-25T07:07:39.175Z,18.50
2018-07-25T07:10:08.878Z,15.87
2018-07-25T07:12:39.438Z,15.63
2018-07-25T07:15:10.836Z,15.80
2018-07-25T07:17:41.441Z,16.53
2018-07-25T07:20:09.976Z,14.33
2018-07-25T07:22:38.506Z,16.60
2018-07-25T07:25:08.475Z,17.30
2018-07-25T07:27:36.947Z,13.43
2018-07-25T07:30:06.948Z,14.43
2018-07-25T07:32:38.133Z,15.90
2018-07-25T07:35:09.271Z,17.23
2018-07-25T07:37:37.996Z,13.77
2018-07-25T07:40:06.556Z,13.13
2018-07-25T07:42:35.259Z,13.80
2018-07-25T07:45:06.366Z,12.60
2018-07-25T07:47:35.854Z,14.60
2018-07-25T07:50:05.389Z,14.17
2018-07-25T07:52:35.816Z,14.20
2018-07-25T07:55:05.865Z,13.27
2018-07-25T07:57:35.579Z,14.80
2018-07-25T08:00:04.939Z,18.13
2018-07-25T08:02:33.469Z,12.57
2018-07-25T08:05:02.120Z,13.37
2018-07-25T08:07:30.595Z,19.37
2018-07-25T08:09:59.079Z,13.83
2018-07-25T08:12:27.620Z,12.57
2018-07-25T08:14:56.116Z,17.70
2018-07-25T08:17:24.616Z,14.20
2018-07-25T08:19:53.093Z,15.63
2018-07-25T08:22:21.640Z,12.50
2018-07-25T08:24:50.181Z,14.13
2018-07-25T08:27:18.704Z,12.60
2018-07-25T08:29:47.235Z,13.60
2018-07-25T08:32:16.705Z,11.73
2018-07-25T08:34:47.365Z,13.60
2018-07-25T08:37:15.883Z,13.43
2018-07-25T08:39:44.372Z,11.90
2018-07-25T08:42:12.907Z,13.60
2018-07-25T08:44:48.183Z,14.10
2018-07-25T08:47:18.389Z,13.83
2018-07-25T08:49:48.225Z,16.83
2018-07-25T08:52:17.289Z,12.30
2018-07-25T08:54:46.405Z,16.43
2018-07-25T08:57:15.178Z,12.70
2018-07-25T08:59:45.065Z,15.30
2018-07-25T09:02:13.501Z,11.30
2018-07-25T09:04:42.504Z,11.57
2018-07-25T09:07:11.103Z,13.30
2018-07-25T09:09:40.384Z,14.63
2018-07-25T09:12:09.256Z,12.20
2018-07-25T09:14:41.493Z,12.23
2018-07-25T09:17:10.297Z,13.73
2018-07-25T09:19:39.230Z,16.90
2018-07-25T09:22:08.154Z,12.10
2018-07-25T09:24:39.901Z,12.10
2018-07-25T09:27:08.973Z,14.23
2018-07-25T09:29:39.681Z,19.03
2018-07-25T09:32:08.299Z,18.87
2018-07-25T09:34:38.907Z,16.20
2018-07-25T09:37:08.872Z,13.80
2018-07-25T09:39:38.573Z,33.27
2018-07-25T09:42:07.535Z,20.40
2018-07-25T09:44:36.123Z,26.97
2018-07-25T09:47:05.063Z,22.20
2018-07-25T09:49:34.481Z,12.93
2018-07-25T09:52:03.729Z,16.30
2018-07-25T09:54:32.663Z,20.83
2018-07-25T09:57:02.367Z,26.03
2018-07-25T09:59:32.065Z,19.90
2018-07-25T10:02:01.149Z,15.10
2018-07-25T10:04:31.005Z,12.30
2018-07-25T10:07:01.852Z,12.07
2018-07-25T10:09:33.051Z,14.07
2018-07-25T10:12:01.529Z,13.13
2018-07-25T10:14:30.561Z,11.70
2018-07-25T10:16:59.605Z,13.47
2018-07-25T10:19:28.028Z,17.40
2018-07-25T10:21:58.807Z,25.23
2018-07-25T10:24:28.347Z,12.20
2018-07-25T10:26:59.072Z,16.73
2018-07-25T10:29:29.870Z,14.90
2018-07-25T10:32:04.304Z,11.20
2018-07-25T10:34:33.065Z,11.40
2018-07-25T10:37:02.085Z,11.63
2018-07-25T10:39:31.211Z,13.60
2018-07-25T10:41:59.679Z,13.03
2018-07-25T10:44:28.404Z,16.00
2018-07-25T10:46:57.368Z,25.27
2018-07-25T10:49:27.148Z,12.40
2018-07-25T10:51:56.651Z,12.77
2018-07-25T10:54:25.786Z,11.30
2018-07-25T10:56:54.537Z,13.80
2018-07-25T10:59:24.556Z,15.53
2018-07-25T11:01:55.476Z,13.60
2018-07-25T11:04:24.062Z,14.73
2018-07-25T11:06:52.555Z,12.30
2018-07-25T11:09:21.371Z,13.40
2018-07-25T11:11:51.700Z,15.30
2018-07-25T11:14:22.695Z,13.53
2018-07-25T11:16:51.491Z,10.17
2018-07-25T11:19:20.049Z,13.17
2018-07-25T11:21:48.696Z,12.03
2018-07-25T11:24:17.859Z,14.30
2018-07-25T11:26:47.291Z,16.93
2018-07-25T11:29:16.436Z,12.00
2018-07-25T11:31:50.743Z,13.57
2018-07-25T11:34:21.823Z,15.70
2018-07-25T11:36:50.352Z,12.13
2018-07-25T11:39:19.592Z,11.30
2018-07-25T11:41:48.212Z,10.20
2018-07-25T11:44:16.745Z,13.37
2018-07-25T11:46:45.257Z,11.80
2018-07-25T11:49:16.965Z,18.27
2018-07-25T11:51:47.997Z,10.67
2018-07-25T11:54:19.140Z,18.17
2018-07-25T11:56:47.922Z,12.17
2018-07-25T11:59:17.752Z,14.87
2018-07-25T12:01:47.198Z,12.80
2018-07-25T12:04:15.830Z,9.93
2018-07-25T12:06:44.343Z,8.00
2018-07-25T12:09:12.913Z,12.43
2018-07-25T12:11:47.048Z,6.77
2018-07-25T12:14:19.482Z,8.03
2018-07-25T12:16:48.030Z,11.13
2018-07-25T12:19:16.203Z,12.90
2018-07-25T12:21:45.190Z,16.87
2018-07-25T12:24:14.330Z,20.00
2018-07-25T12:26:43.807Z,12.70
2018-07-25T12:29:15.198Z,19.87
2018-07-25T12:31:43.937Z,16.17
2018-07-25T12:34:12.674Z,22.70
2018-07-25T12:36:41.173Z,21.03
2018-07-25T12:39:10.219Z,26.63
2018-07-25T12:41:39.247Z,27.87
2018-07-25T12:44:12.996Z,31.70
2018-07-25T12:46:41.518Z,27.10
2018-07-25T12:49:10.101Z,18.93
2018-07-25T12:51:40.350Z,18.67
2018-07-25T12:54:10.835Z,14.10
2018-07-25T12:56:41.131Z,14.60
2018-07-25T12:59:12.161Z,10.90
2018-07-25T13:01:42.746Z,10.70
2018-07-25T13:04:11.760Z,10.63
2018-07-25T13:06:42.610Z,10.77
2018-07-25T13:09:12.540Z,11.10
2018-07-25T13:11:41.262Z,10.73
2018-07-25T13:14:10.007Z,10.60
2018-07-25T13:16:38.635Z,9.20
2018-07-25T13:19:07.152Z,11.70
2018-07-25T13:21:35.808Z,9.40
2018-07-25T13:24:04.282Z,11.40
2018-07-25T13:26:32.704Z,9.30
2018-07-25T13:29:01.539Z,11.23
2018-07-25T13:31:30.023Z,13.37
2018-07-25T13:33:59.684Z,11.40
2018-07-25T13:36:30.183Z,10.90
2018-07-25T13:38:59.797Z,10.97
2018-07-25T13:41:28.421Z,9.33
2018-07-25T13:43:57.036Z,8.17
2018-07-25T13:46:25.677Z,9.60
2018-07-25T13:48:54.220Z,9.27
2018-07-25T13:51:22.922Z,8.30
2018-07-25T13:53:51.467Z,7.33
2018-07-25T13:56:20.004Z,8.70
2018-07-25T13:58:48.662Z,7.43
2018-07-25T14:01:17.127Z,7.23
2018-07-25T14:03:45.592Z,7.30
2018-07-25T14:06:14.137Z,6.80
2018-07-25T14:08:42.682Z,7.33
2018-07-25T14:11:14.851Z,6.80
2018-07-25T14:13:56.913Z,7.23
2018-07-25T14:16:28.418Z,7.63
2018-07-25T14:18:57.194Z,14.03
2018-07-25T14:21:25.870Z,8.70
2018-07-25T14:23:54.754Z,6.73
2018-07-25T14:26:29.868Z,5.30
2018-07-25T14:28:59.548Z,5.67
2018-07-25T14:31:28.337Z,5.27
2018-07-25T14:33:57.107Z,4.90
2018-07-25T14:36:25.808Z,6.03
2018-07-25T14:38:58.289Z,8.80
2018-07-25T14:41:26.896Z,10.03
2018-07-25T14:44:00.192Z,6.60
2018-07-25T14:46:28.429Z,5.00
2018-07-25T14:48:56.663Z,5.47
2018-07-25T14:54:32.479Z,6.83
2018-07-25T14:57:00.759Z,5.63
2018-07-25T15:02:08.774Z,4.80
2018-07-25T15:04:37.519Z,9.23
2018-07-25T15:09:10.594Z,9.53
2018-07-25T15:11:38.869Z,7.00
2018-07-25T15:14:07.285Z,3.67
2018-07-25T15:16:35.842Z,5.20
2018-07-25T15:19:04.526Z,3.83
2018-07-25T15:21:33.132Z,4.70
2018-07-25T15:24:05.032Z,4.20
2018-07-25T15:26:33.700Z,4.37
2018-07-25T15:29:02.833Z,6.00
2018-07-25T15:31:31.402Z,4.47
2018-07-25T15:34:01.073Z,5.97
2018-07-25T15:36:43.191Z,9.00
2018-07-25T15:39:17.360Z,5.07
2018-07-25T15:41:46.837Z,4.90
2018-07-25T15:44:16.015Z,4.83
2018-07-25T15:46:44.938Z,4.50
2018-07-25T15:49:13.477Z,3.90
2018-07-25T15:51:42.146Z,4.20
2018-07-25T15:54:11.427Z,4.17
2018-07-25T15:56:40.155Z,8.63
2018-07-25T15:59:08.913Z,8.43
2018-07-25T16:01:38.463Z,8.30
2018-07-25T16:04:07.285Z,6.27
2018-07-25T16:06:35.907Z,8.07
2018-07-25T16:09:08.617Z,9.43
2018-07-25T16:11:37.023Z,6.17
2018-07-25T16:14:05.254Z,6.63
2018-07-25T16:16:33.905Z,6.87
2018-07-25T16:19:02.484Z,7.30
2018-07-25T16:21:31.230Z,7.03
2018-07-25T16:23:59.869Z,8.03
2018-07-25T16:26:28.058Z,7.03
2018-07-25T16:28:56.607Z,7.73
2018-07-25T16:31:24.826Z,14.70
2018-07-25T16:33:52.992Z,7.60
2018-07-25T16:36:21.566Z,7.40
2018-07-25T16:38:50.240Z,8.73
2018-07-25T16:41:18.557Z,7.33
2018-07-25T16:43:47.025Z,7.43
2018-07-25T16:46:16.194Z,7.33
2018-07-25T16:48:44.840Z,8.53
2018-07-25T16:51:13.382Z,12.83
2018-07-25T16:53:42.012Z,10.20
2018-07-25T16:56:10.592Z,7.93
2018-07-25T16:58:38.789Z,7.10
2018-07-25T17:01:07.462Z,8.77
2018-07-25T17:03:36.673Z,5.63
2018-07-25T17:06:05.261Z,7.47
2018-07-25T17:08:33.821Z,10.43
2018-07-25T17:11:02.021Z,6.97
2018-07-25T17:13:30.547Z,6.20
2018-07-25T17:15:59.247Z,7.73
2018-07-25T17:18:28.397Z,9.40
2018-07-25T17:20:56.903Z,6.90
2018-07-25T17:23:25.595Z,5.90
2018-07-25T17:25:54.525Z,7.53
2018-07-25T17:28:22.758Z,9.33
2018-07-25T17:30:51.636Z,6.17
2018-07-25T17:33:20.249Z,10.37
2018-07-25T17:35:48.841Z,7.53
2018-07-25T17:38:17.367Z,12.40
2018-07-25T17:40:45.942Z,9.47
2018-07-25T17:43:15.218Z,10.70
2018-07-25T17:45:43.888Z,10.80
2018-07-25T17:48:12.351Z,9.07
2018-07-25T17:50:40.895Z,13.07
2018-07-25T17:53:09.211Z,10.40
2018-07-25T17:55:37.868Z,8.73
2018-07-25T17:58:06.914Z,10.17
2018-07-25T18:00:35.495Z,9.97
2018-07-25T18:03:04.460Z,8.73
2018-07-25T18:05:33.072Z,10.17
2018-07-25T18:08:02.474Z,14.90
2018-07-25T18:10:31.038Z,9.57
2018-07-25T18:13:05.062Z,12.00
2018-07-25T18:15:33.686Z,13.03
2018-07-25T18:18:02.240Z,10.53
2018-07-25T18:20:30.809Z,10.47
2018-07-25T18:22:59.692Z,11.53
2018-07-25T18:25:29.260Z,13.53
2018-07-25T18:27:57.516Z,11.27
2018-07-25T18:30:26.138Z,10.07
2018-07-25T18:32:54.811Z,11.87
2018-07-25T18:35:23.407Z,10.17
2018-07-25T18:37:52.097Z,10.50
2018-07-25T18:40:20.474Z,13.17
2018-07-25T18:42:49.100Z,10.03
2018-07-25T18:45:17.673Z,12.03
2018-07-25T18:47:47.258Z,11.77
2018-07-25T18:50:16.988Z,10.03
2018-07-25T18:52:45.617Z,9.30
2018-07-25T18:55:15.089Z,11.03
2018-07-25T18:57:44.162Z,11.43
2018-07-25T19:00:12.820Z,12.70
2018-07-25T19:02:44.378Z,15.77
2018-07-25T19:05:14.798Z,11.80
2018-07-25T19:07:43.020Z,14.27
2018-07-25T19:10:11.721Z,11.80
2018-07-25T19:12:40.300Z,14.30
2018-07-25T19:15:43.583Z,15.10
2018-07-25T19:18:11.964Z,14.53
2018-07-25T19:20:40.930Z,15.43
2018-07-25T19:23:11.260Z,14.57
2018-07-25T19:25:40.934Z,17.90
2018-07-25T19:28:10.228Z,15.33
2018-07-25T19:30:39.502Z,15.90
2018-07-25T19:33:08.228Z,18.03
2018-07-25T19:35:36.926Z,13.83
2018-07-25T19:38:05.544Z,16.20
2018-07-25T19:40:34.680Z,14.43
2018-07-25T19:43:04.394Z,15.60
2018-07-25T19:45:33.170Z,16.33
2018-07-25T19:48:02.347Z,18.40
2018-07-25T19:50:33.624Z,15.93
2018-07-25T19:53:02.616Z,16.27
2018-07-25T19:55:30.866Z,14.77
2018-07-25T19:57:59.485Z,13.70
2018-07-25T20:00:28.469Z,12.63
2018-07-25T20:02:57.943Z,13.50
2018-07-25T20:05:26.178Z,13.73
2018-07-25T20:07:54.868Z,15.00
2018-07-25T20:10:23.493Z,17.60
2018-07-25T20:12:52.575Z,16.00
2018-07-25T20:15:26.543Z,15.73
2018-07-25T20:17:56.673Z,15.03
2018-07-25T20:20:25.053Z,19.20
2018-07-25T20:22:53.647Z,20.23
2018-07-25T20:25:22.171Z,15.20
2018-07-25T20:27:51.994Z,24.60
2018-07-25T20:30:20.913Z,20.27
2018-07-25T20:32:49.611Z,15.50
2018-07-25T20:35:18.388Z,15.10
2018-07-25T20:37:46.909Z,18.53
2018-07-25T20:40:15.479Z,18.20
2018-07-25T20:42:44.053Z,14.03
2018-07-25T20:45:12.586Z,15.80
2018-07-25T20:47:41.694Z,22.57
2018-07-25T20:50:11.078Z,15.63
2018-07-25T20:52:39.513Z,15.77
2018-07-25T20:55:07.681Z,18.27
2018-07-25T20:57:37.022Z,17.00
2018-07-25T21:00:05.551Z,19.10
2018-07-25T21:02:34.217Z,15.70
2018-07-25T21:05:02.742Z,15.47
2018-07-25T21:07:31.491Z,19.93
2018-07-25T21:09:59.996Z,16.03
2018-07-25T21:12:28.160Z,17.77
2018-07-25T21:14:56.683Z,18.70
2018-07-25T21:17:25.203Z,15.77
2018-07-25T21:19:53.747Z,16.60
2018-07-25T21:22:22.738Z,15.83
2018-07-25T21:24:51.271Z,18.10
2018-07-25T21:27:19.815Z,12.23
2018-07-25T21:29:48.356Z,14.40
2018-07-25T21:32:17.244Z,13.87
2018-07-25T21:34:45.854Z,19.60
2018-07-25T21:37:14.316Z,10.33
2018-07-25T21:39:42.428Z,12.27
2018-07-25T21:42:11.293Z,13.03
2018-07-25T21:44:40.420Z,13.67
2018-07-25T21:47:08.931Z,23.50
2018-07-25T21:49:37.108Z,13.50
2018-07-25T21:52:05.663Z,15.93
2018-07-25T21:54:34.090Z,17.80
2018-07-25T21:59:58.574Z,13.20
2018-07-25T22:02:27.071Z,13.23
2018-07-25T22:04:55.511Z,15.80
2018-07-25T22:07:24.009Z,15.23
2018-07-25T22:09:52.460Z,14.30
2018-07-25T22:12:20.612Z,16.03
2018-07-25T22:14:48.759Z,15.97
2018-07-25T22:17:17.202Z,17.60
2018-07-25T22:19:45.630Z,13.47
2018-07-25T22:22:14.174Z,13.87
2018-07-25T22:24:42.608Z,17.60
2018-07-25T22:27:11.157Z,14.40
2018-07-25T22:29:39.365Z,15.50
2018-07-25T22:32:07.514Z,15.77
2018-07-25T22:34:36.081Z,16.27
2018-07-25T22:37:04.260Z,14.20
2018-07-25T22:39:32.389Z,14.90
2018-07-25T22:42:00.932Z,20.03
2018-07-25T22:44:29.083Z,17.50
2018-07-25T22:46:58.239Z,19.90
2018-07-25T22:49:26.729Z,18.40
2018-07-25T22:51:55.235Z,17.90
2018-07-25T22:54:23.349Z,20.47
2018-07-25T22:56:51.862Z,20.57
2018-07-25T22:59:20.314Z,22.17
2018-07-25T23:01:48.851Z,19.63
2018-07-25T23:04:17.298Z,23.90
2018-07-25T23:06:45.723Z,19.57
2018-07-25T23:09:14.202Z,21.37
2018-07-25T23:11:42.398Z,18.00
2018-07-25T23:14:10.551Z,23.40
2018-07-25T23:16:39.006Z,19.97
2018-07-25T23:19:07.227Z,22.73
2018-07-25T23:21:35.693Z,20.53
2018-07-25T23:24:03.840Z,21.43
2018-07-25T23:26:31.963Z,23.23
2018-07-25T23:29:00.564Z,22.73
2018-07-25T23:31:29.026Z,20.07
2018-07-25T23:33:57.471Z,21.73
2018-07-25T23:36:25.662Z,19.60
2018-07-25T23:38:53.779Z,18.80
2018-07-25T23:41:22.205Z,18.63
2018-07-25T23:43:50.761Z,20.17
2018-07-25T23:46:19.201Z,18.30
2018-07-25T23:48:48.423Z,22.03
2018-07-25T23:51:16.911Z,22.37
2018-07-25T23:53:45.017Z,19.63
2018-07-25T23:56:13.463Z,20.07
2018-07-25T23:58:41.967Z,18.23
